createdAt,value
2019-04-23T00:01:47.211Z,11.68
2019-04-23T00:04:10.121Z,11.72
2019-04-23T00:06:45.635Z,11.70
2019-04-23T00:09:19.183Z,11.76
2019-04-23T00:14:21.083Z,11.82
2019-04-23T00:16:44.065Z,11.79
2019-04-23T00:19:17.051Z,11.83
2019-04-23T00:22:00.375Z,11.84
2019-04-23T00:25:12.164Z,11.82
2019-04-23T00:29:53.689Z,11.84
2019-04-23T00:32:23.429Z,11.84
2019-04-23T00:34:55.864Z,11.87
2019-04-23T00:37:25.775Z,11.85
2019-04-23T00:39:52.517Z,11.87
2019-04-23T00:44:54.320Z,11.83
2019-04-23T00:47:27.601Z,11.82
2019-04-23T00:50:03.606Z,11.81
2019-04-23T00:52:26.388Z,11.82
2019-04-23T00:55:07.722Z,11.83
2019-04-23T00:57:29.052Z,11.81
2019-04-23T01:00:03.464Z,11.75
2019-04-23T01:02:33.277Z,11.72
2019-04-23T01:05:04.802Z,11.71
2019-04-23T01:07:33.588Z,11.69
2019-04-23T01:10:08.299Z,11.68
2019-04-23T01:15:15.721Z,11.67
2019-04-23T01:20:14.260Z,11.62
2019-04-23T01:22:29.621Z,11.62
2019-04-23T01:25:13.794Z,11.59
2019-04-23T01:28:04.393Z,11.60
2019-04-23T01:30:38.840Z,11.57
2019-04-23T01:33:03.345Z,11.55
2019-04-23T01:35:36.556Z,11.53
2019-04-23T01:38:04.829Z,11.54
2019-04-23T01:40:39.438Z,11.50
2019-04-23T01:43:07.946Z,11.48
2019-04-23T01:45:57.431Z,11.50
2019-04-23T01:48:11.108Z,11.48
2019-04-23T01:50:50.194Z,11.45
2019-04-23T01:55:46.877Z,11.45
2019-04-23T01:58:34.990Z,11.44
2019-04-23T02:00:47.565Z,11.39
2019-04-23T02:03:21.184Z,11.40
2019-04-23T02:05:48.084Z,11.37
2019-04-23T02:08:22.787Z,11.34
2019-04-23T02:13:22.355Z,11.28
2019-04-23T02:15:53.810Z,11.27
2019-04-23T02:18:20.572Z,11.26
2019-04-23T02:20:59.544Z,11.26
2019-04-23T02:23:53.726Z,11.22
2019-04-23T02:26:33.319Z,11.19
2019-04-23T02:29:06.433Z,11.18
2019-04-23T02:34:12.161Z,11.12
2019-04-23T02:36:39.876Z,11.08
2019-04-23T02:46:31.712Z,10.92
2019-04-23T02:49:38.198Z,10.89
2019-04-23T02:56:47.105Z,10.84
2019-04-23T02:59:18.958Z,10.82
2019-04-23T03:01:40.039Z,10.79
2019-04-23T03:04:17.446Z,10.74
2019-04-23T03:06:52.254Z,10.70
2019-04-23T03:09:20.094Z,10.66
2019-04-23T03:11:52.261Z,10.62
2019-04-23T03:14:18.478Z,10.60
2019-04-23T03:22:30.534Z,10.51
2019-04-23T03:25:23.276Z,10.48
2019-04-23T03:27:44.047Z,10.44
2019-04-23T03:34:42.585Z,10.40
2019-04-23T03:37:58.169Z,10.32
2019-04-23T03:40:32.420Z,10.27
2019-04-23T03:43:06.430Z,10.23
2019-04-23T03:45:37.030Z,10.20
2019-04-23T03:52:46.528Z,10.09
2019-04-23T03:57:52.343Z,10.04
2019-04-23T04:00:35.180Z,10.01
2019-04-23T04:03:27.901Z,9.97
2019-04-23T04:05:49.312Z,9.96
2019-04-23T04:10:35.293Z,9.88
2019-04-23T04:12:59.195Z,9.88
2019-04-23T04:20:52.363Z,9.78
2019-04-23T04:23:22.222Z,9.77
2019-04-23T04:28:12.955Z,9.73
2019-04-23T04:30:43.517Z,9.70
2019-04-23T04:33:41.340Z,9.69
2019-04-23T04:35:58.369Z,9.68
2019-04-23T04:38:36.383Z,9.67
2019-04-23T04:43:32.247Z,9.65
2019-04-23T04:53:47.417Z,9.64
2019-04-23T04:56:07.786Z,9.62
2019-04-23T04:58:32.388Z,9.63
2019-04-23T05:01:10.059Z,9.61
2019-04-23T05:03:28.533Z,9.61
2019-04-23T05:06:18.612Z,9.64
2019-04-23T05:11:10.933Z,9.65
2019-04-23T05:16:10.082Z,9.68
2019-04-23T05:18:38.174Z,9.69
2019-04-23T05:23:43.009Z,9.77
2019-04-23T05:26:21.017Z,9.77
2019-04-23T05:31:19.013Z,9.83
2019-04-23T05:33:52.214Z,9.83
2019-04-23T05:41:38.466Z,9.94
2019-04-23T05:43:57.236Z,9.99
2019-04-23T05:46:26.417Z,10.01
2019-04-23T05:51:27.955Z,10.09
2019-04-23T05:56:29.106Z,10.18
2019-04-23T05:58:59.605Z,10.22
2019-04-23T06:06:54.159Z,10.34
2019-04-23T06:09:07.803Z,10.37
2019-04-23T06:11:47.056Z,10.41
2019-04-23T06:14:24.989Z,10.46
2019-04-23T06:19:11.185Z,10.55
2019-04-23T06:21:47.867Z,10.60
2019-04-23T06:24:16.991Z,10.63
2019-04-23T06:26:52.753Z,10.70
2019-04-23T06:29:15.484Z,10.75
2019-04-23T06:36:37.815Z,10.90
2019-04-23T06:39:13.330Z,10.95
2019-04-23T06:41:44.841Z,10.98
2019-04-23T06:44:28.438Z,11.01
2019-04-23T06:47:02.107Z,11.08
2019-04-23T06:49:26.447Z,11.13
2019-04-23T06:52:08.442Z,11.17
2019-04-23T06:54:24.465Z,11.22
2019-04-23T06:59:29.328Z,11.34
2019-04-23T07:04:39.366Z,11.45
2019-04-23T07:07:25.664Z,11.51
2019-04-23T07:09:18.692Z,11.57
2019-04-23T07:11:54.048Z,11.64
2019-04-23T07:14:35.913Z,11.69
2019-04-23T07:17:04.273Z,11.75
2019-04-23T07:19:39.241Z,11.83
2019-04-23T07:22:12.908Z,11.90
2019-04-23T07:24:34.557Z,11.94
2019-04-23T07:27:01.325Z,12.01
2019-04-23T07:29:39.189Z,12.10
2019-04-23T07:32:05.384Z,12.15
2019-04-23T07:34:39.317Z,12.25
2019-04-23T07:37:12.601Z,12.29
2019-04-23T07:40:11.325Z,12.36
2019-04-23T07:48:11.269Z,12.62
2019-04-23T07:58:20.821Z,13.01
2019-04-23T08:05:43.983Z,13.32
2019-04-23T08:08:13.402Z,13.41
2019-04-23T08:11:23.425Z,13.55
2019-04-23T08:13:41.654Z,13.65
2019-04-23T08:16:19.694Z,13.81
2019-04-23T08:18:45.369Z,13.93
2019-04-23T08:21:10.599Z,14.03
2019-04-23T08:23:55.269Z,14.14
2019-04-23T08:26:45.112Z,14.24
2019-04-23T08:29:17.133Z,14.35
2019-04-23T08:31:46.704Z,14.50
2019-04-23T08:39:21.545Z,14.87
2019-04-23T08:41:59.661Z,14.96
2019-04-23T08:44:41.495Z,15.10
2019-04-23T08:47:09.426Z,15.20
2019-04-23T08:49:43.251Z,15.32
2019-04-23T08:52:11.815Z,15.41
2019-04-23T08:54:48.397Z,15.48
2019-04-23T08:59:45.171Z,15.65
2019-04-23T09:05:02.545Z,15.82
2019-04-23T09:07:16.923Z,15.93
2019-04-23T09:09:53.677Z,16.04
2019-04-23T09:12:21.031Z,16.15
2019-04-23T09:14:46.563Z,16.28
2019-04-23T09:17:37.659Z,16.49
2019-04-23T09:20:09.862Z,16.62
2019-04-23T09:22:25.109Z,16.78
2019-04-23T09:27:27.529Z,16.94
2019-04-23T09:30:00.048Z,17.04
2019-04-23T09:32:26.591Z,17.16
2019-04-23T09:35:20.247Z,17.25
2019-04-23T09:37:54.110Z,17.35
2019-04-23T09:43:31.250Z,17.46
2019-04-23T09:46:32.067Z,17.50
2019-04-23T09:49:09.791Z,17.52
2019-04-23T09:51:38.665Z,17.54
2019-04-23T09:54:02.945Z,17.62
2019-04-23T09:56:39.329Z,17.65
2019-04-23T09:59:08.922Z,17.76
2019-04-23T10:03:56.112Z,17.93
2019-04-23T10:06:18.334Z,18.02
2019-04-23T10:08:47.572Z,18.14
2019-04-23T10:11:13.610Z,18.22
2019-04-23T10:13:42.963Z,18.25
2019-04-23T10:16:15.630Z,18.30
2019-04-23T10:18:42.923Z,18.37
2019-04-23T10:21:13.101Z,18.49
2019-04-23T10:23:43.299Z,18.59
2019-04-23T10:26:12.396Z,18.73
2019-04-23T10:29:09.956Z,18.82
2019-04-23T10:31:40.028Z,18.91
2019-04-23T10:34:10.341Z,19.03
2019-04-23T10:36:40.663Z,19.05
2019-04-23T10:39:17.579Z,19.16
2019-04-23T10:41:45.731Z,19.12
2019-04-23T10:44:32.997Z,19.12
2019-04-23T10:47:45.352Z,19.20
2019-04-23T10:58:25.009Z,19.50
2019-04-23T11:01:01.662Z,19.47
2019-04-23T11:03:41.984Z,19.52
2019-04-23T11:08:30.984Z,19.56
2019-04-23T11:11:00.163Z,19.58
2019-04-23T11:13:50.208Z,19.63
2019-04-23T11:16:45.927Z,19.70
2019-04-23T11:21:23.752Z,19.87
2019-04-23T11:23:51.799Z,19.96
2019-04-23T11:26:31.854Z,20.08
2019-04-23T11:28:51.888Z,20.15
2019-04-23T11:31:31.568Z,20.24
2019-04-23T11:34:01.588Z,20.35
2019-04-23T11:39:00.642Z,20.44
2019-04-23T11:41:32.412Z,20.41
2019-04-23T11:51:09.303Z,20.43
2019-04-23T11:51:09.304Z,20.48
2019-04-23T11:51:45.910Z,20.61
2019-04-23T11:54:07.065Z,20.70
2019-04-23T11:59:07.539Z,20.93
2019-04-23T12:02:07.386Z,20.99
2019-04-23T12:05:03.756Z,21.04
2019-04-23T12:07:32.605Z,20.97
2019-04-23T12:12:33.334Z,21.02
2019-04-23T12:15:15.343Z,21.13
2019-04-23T12:17:49.053Z,21.16
2019-04-23T12:22:48.951Z,21.10
2019-04-23T12:27:59.363Z,21.25
2019-04-23T12:30:27.392Z,21.06
2019-04-23T12:32:53.685Z,21.11
2019-04-23T12:37:56.282Z,21.17
2019-04-23T12:40:25.049Z,20.99
2019-04-23T12:45:30.162Z,20.79
2019-04-23T12:50:45.048Z,20.82
2019-04-23T12:53:05.732Z,20.74
2019-04-23T12:58:03.847Z,20.70
2019-04-23T13:03:25.971Z,20.89
2019-04-23T13:05:33.944Z,20.90
2019-04-23T13:08:24.574Z,20.79
2019-04-23T13:10:43.638Z,20.72
2019-04-23T13:15:40.882Z,20.48
2019-04-23T13:20:38.461Z,20.30
2019-04-23T13:23:18.322Z,20.23
2019-04-23T13:28:29.505Z,20.22
2019-04-23T13:30:59.542Z,20.17
2019-04-23T13:41:08.800Z,20.27
2019-04-23T13:43:40.438Z,20.23
2019-04-23T13:48:27.990Z,20.12
2019-04-23T13:51:06.725Z,20.10
2019-04-23T13:56:11.510Z,19.98
2019-04-23T14:11:21.638Z,20.05
2019-04-23T14:16:29.836Z,19.91
2019-04-23T14:21:25.261Z,19.83
2019-04-23T14:24:02.923Z,19.79
2019-04-23T14:28:44.557Z,19.57
2019-04-23T14:34:01.311Z,19.37
2019-04-23T14:36:25.315Z,19.36
2019-04-23T14:39:07.274Z,19.32
2019-04-23T14:42:16.669Z,19.18
2019-04-23T14:44:11.056Z,19.19
2019-04-23T14:49:30.852Z,19.12
2019-04-23T14:51:47.814Z,19.05
2019-04-23T14:54:15.808Z,19.03
2019-04-23T14:56:44.905Z,19.04
2019-04-23T14:59:10.452Z,18.93
2019-04-23T15:04:10.919Z,18.87
2019-04-23T15:06:58.293Z,18.86
2019-04-23T15:09:27.616Z,18.84
2019-04-23T15:11:52.750Z,18.80
2019-04-23T15:14:17.725Z,18.82
2019-04-23T15:16:54.441Z,18.82
2019-04-23T15:19:40.423Z,18.85
2019-04-23T15:22:12.501Z,18.85
2019-04-23T15:29:24.551Z,19.04
2019-04-23T15:32:08.989Z,19.02
2019-04-23T15:34:57.526Z,18.94
2019-04-23T15:44:41.933Z,18.83
2019-04-23T15:47:19.687Z,18.84
2019-04-23T15:49:47.390Z,18.81
2019-04-23T15:52:39.330Z,18.75
2019-04-23T15:54:50.540Z,18.70
2019-04-23T15:57:28.445Z,18.61
2019-04-23T15:59:47.864Z,18.56
2019-04-23T16:01:51.202Z,18.50
2019-04-23T16:04:20.817Z,18.39
2019-04-23T16:06:51.915Z,18.30
2019-04-23T16:09:57.371Z,18.26
2019-04-23T16:12:20.458Z,18.20
2019-04-23T16:15:03.655Z,18.21
2019-04-23T16:22:30.410Z,18.03
2019-04-23T16:25:06.852Z,18.04
2019-04-23T16:27:28.306Z,17.99
2019-04-23T16:35:50.671Z,17.90
2019-04-23T16:38:26.704Z,17.86
2019-04-23T16:41:00.759Z,17.80
2019-04-23T16:43:13.265Z,17.78
2019-04-23T16:48:35.058Z,17.67
2019-04-23T16:53:21.204Z,17.62
2019-04-23T16:56:01.551Z,17.61
2019-04-23T16:58:29.457Z,17.61
2019-04-23T17:01:05.899Z,17.62
2019-04-23T17:03:26.245Z,17.62
2019-04-23T17:05:59.457Z,17.53
2019-04-23T17:11:00.126Z,17.50
2019-04-23T17:13:34.660Z,17.48
2019-04-23T17:18:31.882Z,17.36
2019-04-23T17:20:58.326Z,17.32
2019-04-23T17:23:39.957Z,17.29
2019-04-23T17:26:03.425Z,17.25
2019-04-23T17:28:31.054Z,17.22
2019-04-23T17:31:28.169Z,17.17
2019-04-23T17:33:45.125Z,17.12
2019-04-23T17:39:04.000Z,17.07
2019-04-23T17:41:57.451Z,16.99
2019-04-23T17:44:23.625Z,16.98
2019-04-23T17:46:57.963Z,16.94
2019-04-23T17:49:15.301Z,16.92
2019-04-23T17:51:53.811Z,16.90
2019-04-23T17:54:23.257Z,16.88
2019-04-23T17:57:05.509Z,16.80
2019-04-23T17:59:27.765Z,16.75
2019-04-23T18:02:24.269Z,16.69
2019-04-23T18:04:29.658Z,16.62
2019-04-23T18:14:16.497Z,16.38
2019-04-23T18:16:57.200Z,16.30
2019-04-23T18:19:22.854Z,16.24
2019-04-23T18:27:24.735Z,16.11
2019-04-23T18:30:15.237Z,16.07
2019-04-23T18:33:01.337Z,16.00
2019-04-23T18:35:20.100Z,15.93
2019-04-23T18:37:44.292Z,15.85
2019-04-23T18:40:13.052Z,15.80
2019-04-23T18:42:43.696Z,15.70
2019-04-23T18:45:22.805Z,15.61
2019-04-23T18:50:32.779Z,15.52
2019-04-23T18:55:35.979Z,15.43
2019-04-23T18:58:03.396Z,15.34
2019-04-23T19:00:41.438Z,15.26
2019-04-23T19:03:11.544Z,15.18
2019-04-23T19:05:55.029Z,15.13
2019-04-23T19:08:42.572Z,15.07
2019-04-23T19:11:09.138Z,15.06
2019-04-23T19:13:40.338Z,15.01
2019-04-23T19:16:08.087Z,14.92
2019-04-23T19:18:40.381Z,14.86
2019-04-23T19:21:13.863Z,14.77
2019-04-23T19:23:47.269Z,14.73
2019-04-23T19:26:15.794Z,14.69
2019-04-23T19:28:47.639Z,14.63
2019-04-23T19:31:47.586Z,14.62
2019-04-23T19:34:21.377Z,14.58
2019-04-23T19:36:56.352Z,14.57
2019-04-23T19:39:11.915Z,14.53
2019-04-23T19:42:02.123Z,14.47
2019-04-23T19:44:08.381Z,14.43
2019-04-23T19:46:54.856Z,14.43
2019-04-23T19:51:48.161Z,14.32
2019-04-23T19:56:49.782Z,14.24
2019-04-23T19:59:14.104Z,14.21
2019-04-23T20:01:53.345Z,14.16
2019-04-23T20:04:15.415Z,14.12
2019-04-23T20:07:05.472Z,14.10
2019-04-23T20:09:37.415Z,14.09
2019-04-23T20:12:07.313Z,14.07
2019-04-23T20:14:21.472Z,13.98
2019-04-23T20:19:34.904Z,13.94
2019-04-23T20:21:59.221Z,13.90
2019-04-23T20:24:28.614Z,13.88
2019-04-23T20:26:59.384Z,13.82
2019-04-23T20:35:08.524Z,13.67
2019-04-23T20:40:04.138Z,13.60
2019-04-23T20:42:38.994Z,13.59
2019-04-23T20:45:22.607Z,13.60
2019-04-23T20:47:45.595Z,13.62
2019-04-23T20:50:00.076Z,13.56
2019-04-23T20:52:44.817Z,13.49
2019-04-23T20:57:54.964Z,13.41
2019-04-23T21:00:42.981Z,13.39
2019-04-23T21:05:36.035Z,13.33
2019-04-23T21:08:41.011Z,13.29
2019-04-23T21:20:48.850Z,13.24
2019-04-23T21:23:21.639Z,13.20
2019-04-23T21:25:49.036Z,13.18
2019-04-23T21:28:27.154Z,13.16
2019-04-23T21:31:16.428Z,13.13
2019-04-23T21:33:55.378Z,13.12
2019-04-23T21:44:21.018Z,12.92
2019-04-23T21:46:58.492Z,12.87
2019-04-23T21:51:57.584Z,12.85
2019-04-23T21:54:35.337Z,12.80
2019-04-23T21:56:55.328Z,12.78
2019-04-23T21:59:28.627Z,12.76
2019-04-23T22:01:58.835Z,12.71
2019-04-23T22:04:35.691Z,12.70
2019-04-23T22:06:59.088Z,12.70
2019-04-23T22:09:34.642Z,12.65
2019-04-23T22:14:40.549Z,12.61
2019-04-23T22:17:09.478Z,12.56
2019-04-23T22:19:38.355Z,12.52
2019-04-23T22:22:02.589Z,12.49
2019-04-23T22:24:43.033Z,12.50
2019-04-23T22:27:10.114Z,12.45
2019-04-23T22:29:39.724Z,12.45
2019-04-23T22:32:16.679Z,12.44
2019-04-23T22:34:48.288Z,12.43
2019-04-23T22:37:14.034Z,12.40
2019-04-23T22:39:45.743Z,12.40
2019-04-23T22:42:34.913Z,12.37
2019-04-23T22:44:59.092Z,12.37
2019-04-23T22:47:08.821Z,12.35
2019-04-23T22:52:21.688Z,12.26
2019-04-23T22:57:32.777Z,12.14
2019-04-23T23:00:09.162Z,12.16
2019-04-23T23:02:44.388Z,12.12
2019-04-23T23:05:14.373Z,12.07
2019-04-23T23:07:48.849Z,12.05
2019-04-23T23:17:54.633Z,11.97
2019-04-23T23:20:21.116Z,11.98
2019-04-23T23:23:05.643Z,11.95
2019-04-23T23:25:23.838Z,11.96
2019-04-23T23:27:55.231Z,11.98
2019-04-23T23:32:52.389Z,11.98
2019-04-23T23:35:31.213Z,11.97
2019-04-23T23:37:52.957Z,11.95
2019-04-23T23:40:20.439Z,11.97
2019-04-23T23:43:03.693Z,12.01
2019-04-23T23:45:30.500Z,11.97
2019-04-23T23:50:28.072Z,11.96
2019-04-23T23:53:05.247Z,11.94
2019-04-23T23:55:18.503Z,11.94
2019-04-23T23:57:59.749Z,11.92
